createdAt,value
2023-04-03T00:01:21.230Z,9.40
2023-04-03T00:03:49.175Z,8.80
2023-04-03T00:06:17.210Z,8.00
2023-04-03T00:08:45.205Z,8.30
2023-04-03T00:11:13.148Z,9.00
2023-04-03T00:13:41.444Z,7.90
2023-04-03T00:16:10.648Z,7.80
2023-04-03T00:18:40.083Z,7.50
2023-04-03T00:21:08.839Z,6.50
2023-04-03T00:23:36.859Z,6.60
2023-04-03T00:26:04.984Z,6.70
2023-04-03T00:28:32.844Z,7.10
2023-04-03T00:31:00.927Z,6.30
2023-04-03T00:33:29.010Z,6.10
2023-04-03T00:35:56.887Z,6.90
2023-04-03T00:38:25.007Z,6.20
2023-04-03T00:40:52.985Z,6.90
2023-04-03T00:43:25.992Z,6.00
2023-04-03T00:45:56.598Z,6.10
2023-04-03T00:48:35.626Z,5.90
2023-04-03T00:51:06.891Z,5.90
2023-04-03T00:53:41.869Z,5.50
2023-04-03T00:56:13.518Z,5.80
2023-04-03T00:58:48.331Z,5.80
2023-04-03T01:01:22.753Z,5.70
2023-04-03T01:03:52.193Z,5.50
2023-04-03T01:06:26.286Z,6.00
2023-04-03T01:08:55.493Z,5.50
2023-04-03T01:11:23.724Z,5.90
2023-04-03T01:13:51.735Z,5.70
2023-04-03T01:16:20.874Z,6.00
2023-04-03T01:18:49.308Z,5.70
2023-04-03T01:21:49.013Z,5.80
2023-04-03T01:24:40.241Z,5.10
2023-04-03T01:27:11.620Z,6.10
2023-04-03T01:29:41.202Z,5.80
2023-04-03T01:32:09.328Z,5.50
2023-04-03T01:34:37.507Z,5.50
2023-04-03T01:37:05.620Z,5.40
2023-04-03T01:39:33.555Z,5.80
2023-04-03T01:42:01.677Z,5.90
2023-04-03T01:44:29.599Z,5.80
2023-04-03T01:46:57.775Z,5.00
2023-04-03T01:49:25.829Z,6.00
2023-04-03T01:51:53.699Z,6.10
2023-04-03T01:54:21.558Z,5.90
2023-04-03T01:56:49.445Z,6.10
2023-04-03T01:59:19.059Z,5.80
2023-04-03T02:01:46.990Z,5.70
2023-04-03T02:04:15.067Z,6.10
2023-04-03T02:06:43.047Z,6.10
2023-04-03T02:09:11.043Z,5.80
2023-04-03T02:11:38.934Z,6.30
2023-04-03T02:14:07.585Z,6.50
2023-04-03T02:16:35.462Z,5.70
2023-04-03T02:19:03.479Z,5.90
2023-04-03T02:21:31.519Z,6.20
2023-04-03T02:23:59.540Z,6.60
2023-04-03T02:26:27.800Z,6.40
2023-04-03T02:28:55.754Z,6.00
2023-04-03T02:31:25.290Z,6.40
2023-04-03T02:33:53.218Z,6.30
2023-04-03T02:36:21.109Z,6.50
2023-04-03T02:38:49.524Z,6.80
2023-04-03T02:41:17.680Z,5.90
2023-04-03T02:43:45.665Z,6.30
2023-04-03T02:46:16.170Z,6.80
2023-04-03T02:48:44.053Z,6.20
2023-04-03T02:51:12.316Z,6.50
2023-04-03T02:53:40.216Z,6.00
2023-04-03T02:56:08.085Z,6.90
2023-04-03T02:58:36.593Z,7.00
2023-04-03T03:01:04.668Z,6.70
2023-04-03T03:03:32.517Z,6.80
2023-04-03T03:06:09.588Z,6.30
2023-04-03T03:08:37.837Z,6.80
2023-04-03T03:11:06.350Z,6.60
2023-04-03T03:13:34.863Z,6.50
2023-04-03T03:16:04.035Z,6.50
2023-04-03T03:18:32.218Z,6.50
2023-04-03T03:21:02.099Z,6.50
2023-04-03T03:23:33.190Z,6.30
2023-04-03T03:26:04.435Z,6.30
2023-04-03T03:28:33.489Z,7.30
2023-04-03T03:31:01.930Z,6.30
2023-04-03T03:33:30.344Z,5.70
2023-04-03T03:35:58.819Z,6.10
2023-04-03T03:38:27.023Z,6.10
2023-04-03T03:40:54.985Z,6.10
2023-04-03T03:43:22.957Z,5.90
2023-04-03T03:45:53.396Z,5.70
2023-04-03T03:48:22.750Z,5.90
2023-04-03T03:50:51.301Z,5.90
2023-04-03T03:53:20.307Z,5.60
2023-04-03T03:55:48.342Z,5.90
2023-04-03T03:58:16.281Z,5.80
2023-04-03T04:00:44.476Z,5.90
2023-04-03T04:03:12.545Z,6.70
2023-04-03T04:05:40.629Z,6.00
2023-04-03T04:08:08.587Z,5.30
2023-04-03T04:10:38.558Z,5.30
2023-04-03T04:13:06.959Z,5.90
2023-04-03T04:15:35.500Z,5.30
2023-04-03T04:18:04.645Z,5.70
2023-04-03T04:20:32.813Z,5.30
2023-04-03T04:23:01.179Z,5.30
2023-04-03T04:25:29.136Z,5.40
2023-04-03T04:27:57.048Z,5.40
2023-04-03T04:30:24.966Z,5.40
2023-04-03T04:32:52.939Z,5.50
2023-04-03T04:35:20.999Z,5.10
2023-04-03T04:37:49.187Z,5.20
2023-04-03T04:40:17.122Z,5.10
2023-04-03T04:42:45.461Z,5.00
2023-04-03T04:45:13.464Z,5.30
2023-04-03T04:47:41.613Z,5.20
2023-04-03T04:50:10.785Z,5.40
2023-04-03T04:52:39.281Z,5.50
2023-04-03T04:55:07.618Z,5.40
2023-04-03T04:57:36.282Z,5.40
2023-04-03T05:00:04.859Z,5.50
2023-04-03T05:02:32.736Z,5.20
2023-04-03T05:07:29.087Z,5.30
2023-04-03T05:09:56.990Z,5.70
2023-04-03T05:12:24.974Z,4.80
2023-04-03T05:14:52.854Z,7.00
2023-04-03T05:17:21.373Z,4.90
2023-04-03T05:19:49.223Z,4.80
2023-04-03T05:22:17.055Z,6.20
2023-04-03T05:24:44.898Z,5.40
2023-04-03T05:27:12.828Z,5.50
2023-04-03T05:29:45.270Z,5.10
2023-04-03T05:32:13.310Z,4.90
2023-04-03T05:34:41.186Z,5.30
2023-04-03T05:37:09.069Z,4.90
2023-04-03T05:39:37.290Z,5.90
2023-04-03T05:42:05.253Z,5.30
2023-04-03T05:44:33.256Z,6.00
2023-04-03T05:47:01.217Z,5.50
2023-04-03T05:49:29.227Z,5.00
2023-04-03T05:51:57.096Z,5.70
2023-04-03T05:54:27.625Z,4.60
2023-04-03T05:56:56.865Z,5.10
2023-04-03T05:59:24.742Z,7.10
2023-04-03T06:01:53.260Z,4.90
2023-04-03T06:04:22.195Z,5.00
2023-04-03T06:06:53.018Z,5.70
2023-04-03T06:09:23.212Z,5.70
2023-04-03T06:11:52.917Z,4.70
2023-04-03T06:14:20.746Z,4.60
2023-04-03T06:16:49.528Z,5.30
2023-04-03T06:19:17.403Z,5.30
2023-04-03T06:21:45.591Z,5.70
2023-04-03T06:24:16.860Z,5.00
2023-04-03T06:26:45.420Z,5.30
2023-04-03T06:29:13.441Z,5.30
2023-04-03T06:31:41.609Z,4.90
2023-04-03T06:34:10.527Z,4.30
2023-04-03T06:36:38.717Z,4.90
2023-04-03T06:39:07.974Z,4.40
2023-04-03T06:41:37.147Z,4.70
2023-04-03T06:44:05.986Z,4.50
2023-04-03T06:46:34.134Z,4.30
2023-04-03T06:49:02.601Z,4.60
2023-04-03T06:51:31.366Z,4.60
2023-04-03T06:54:00.723Z,4.10
2023-04-03T06:56:29.774Z,4.50
2023-04-03T06:58:58.781Z,4.80
2023-04-03T07:01:31.405Z,4.10
2023-04-03T07:03:59.478Z,3.80
2023-04-03T07:06:28.186Z,4.40
2023-04-03T07:08:56.499Z,4.20
2023-04-03T07:11:24.932Z,4.50
2023-04-03T07:13:54.897Z,4.50
2023-04-03T07:16:22.925Z,4.20
2023-04-03T07:18:51.267Z,4.40
2023-04-03T07:21:19.212Z,4.60
2023-04-03T07:26:15.057Z,5.30
2023-04-03T07:28:43.228Z,5.10
2023-04-03T07:31:17.968Z,4.30
2023-04-03T07:33:47.006Z,4.70
2023-04-03T07:36:18.273Z,4.60
2023-04-03T07:38:46.530Z,4.20
2023-04-03T07:41:21.227Z,4.40
2023-04-03T07:43:50.771Z,5.10
2023-04-03T07:46:19.020Z,4.50
2023-04-03T07:48:47.532Z,4.60
2023-04-03T07:51:16.004Z,4.80
2023-04-03T07:53:43.992Z,4.60
2023-04-03T07:56:11.886Z,4.40
2023-04-03T07:58:39.855Z,4.80
2023-04-03T08:01:08.433Z,4.30
2023-04-03T08:03:38.415Z,4.00
2023-04-03T08:06:11.930Z,4.00
2023-04-03T08:08:44.039Z,3.90
2023-04-03T08:11:12.661Z,3.30
2023-04-03T08:13:42.446Z,4.00
2023-04-03T08:16:17.668Z,3.70
2023-04-03T08:18:45.684Z,3.50
2023-04-03T08:21:13.964Z,4.00
2023-04-03T08:23:42.819Z,3.80
2023-04-03T08:26:16.698Z,3.90
2023-04-03T08:31:15.876Z,4.10
2023-04-03T08:33:43.931Z,3.60
2023-04-03T08:36:22.888Z,3.90
2023-04-03T08:38:52.138Z,4.00
2023-04-03T08:41:33.023Z,3.50
2023-04-03T08:44:28.799Z,3.50
2023-04-03T08:46:59.814Z,3.60
2023-04-03T08:49:32.581Z,3.30
2023-04-03T08:52:05.490Z,4.20
2023-04-03T08:54:42.647Z,3.70
2023-04-03T08:57:12.663Z,3.40
2023-04-03T08:59:41.459Z,4.30
2023-04-03T09:02:30.342Z,3.40
2023-04-03T09:04:58.789Z,3.60
2023-04-03T09:07:37.283Z,3.90
2023-04-03T09:10:06.923Z,3.40
2023-04-03T09:12:40.697Z,2.80
2023-04-03T09:15:20.008Z,3.00
2023-04-03T09:18:11.034Z,2.80
2023-04-03T09:20:54.227Z,2.30
2023-04-03T09:23:31.453Z,2.80
2023-04-03T09:26:06.216Z,2.70
2023-04-03T09:28:49.169Z,3.10
2023-04-03T09:31:21.324Z,3.10
2023-04-03T09:33:53.005Z,3.00
2023-04-03T09:36:44.710Z,3.30
2023-04-03T09:39:18.888Z,3.20
2023-04-03T09:42:01.344Z,2.70
2023-04-03T09:44:38.365Z,2.90
2023-04-03T09:47:35.124Z,2.80
2023-04-03T09:50:15.438Z,3.60
2023-04-03T09:52:46.456Z,3.40
2023-04-03T09:55:30.694Z,3.10
2023-04-03T09:58:05.472Z,3.30
2023-04-03T10:00:41.371Z,3.30
2023-04-03T10:03:27.532Z,3.50
2023-04-03T10:05:56.496Z,3.40
2023-04-03T10:08:31.116Z,3.60
2023-04-03T10:11:11.564Z,3.40
2023-04-03T10:14:17.410Z,3.70
2023-04-03T10:16:54.185Z,4.40
2023-04-03T10:19:22.039Z,3.60
2023-04-03T10:21:58.906Z,3.80
2023-04-03T10:24:34.104Z,3.70
2023-04-03T10:27:35.405Z,3.60
2023-04-03T10:30:21.975Z,3.70
2023-04-03T10:33:13.188Z,3.50
2023-04-03T10:36:13.478Z,3.60
2023-04-03T10:38:56.327Z,3.30
2023-04-03T10:41:41.458Z,3.50
2023-04-03T10:44:21.154Z,3.80
2023-04-03T10:46:53.385Z,3.90
2023-04-03T10:49:42.489Z,4.10
2023-04-03T10:52:22.343Z,3.80
2023-04-03T10:54:59.429Z,4.30
2023-04-03T10:57:29.976Z,4.40
2023-04-03T11:00:04.163Z,3.80
2023-04-03T11:02:43.305Z,3.50
2023-04-03T11:05:41.971Z,4.50
2023-04-03T11:08:34.790Z,4.90
2023-04-03T11:11:13.797Z,3.90
2023-04-03T11:13:51.206Z,4.20
2023-04-03T11:16:25.296Z,3.80
2023-04-03T11:19:01.050Z,4.00
2023-04-03T11:21:41.169Z,4.20
2023-04-03T11:24:30.883Z,3.80
2023-04-03T11:27:01.130Z,4.00
2023-04-03T11:29:36.069Z,4.60
2023-04-03T11:32:19.343Z,4.70
2023-04-03T11:34:51.792Z,4.60
2023-04-03T11:37:48.335Z,5.40
2023-04-03T11:40:16.538Z,4.80
2023-04-03T11:42:50.980Z,4.20
2023-04-03T11:45:36.811Z,4.30
2023-04-03T11:48:36.923Z,4.80
2023-04-03T11:51:13.834Z,6.10
2023-04-03T11:53:41.997Z,3.60
2023-04-03T11:56:25.765Z,3.90
2023-04-03T11:59:12.650Z,3.60
2023-04-03T12:01:57.674Z,4.30
2023-04-03T12:04:27.957Z,4.30
2023-04-03T12:07:02.408Z,6.80
2023-04-03T12:09:35.175Z,4.50
2023-04-03T12:12:32.196Z,4.30
2023-04-03T12:15:39.130Z,4.10
2023-04-03T12:18:59.657Z,3.50
2023-04-03T12:21:30.341Z,3.90
2023-04-03T12:24:10.820Z,3.80
2023-04-03T12:26:52.744Z,4.10
2023-04-03T12:29:33.535Z,3.90
2023-04-03T12:32:04.767Z,4.40
2023-04-03T12:34:57.663Z,4.50
2023-04-03T12:37:59.710Z,4.20
2023-04-03T12:40:42.665Z,3.80
2023-04-03T12:43:41.206Z,4.10
2023-04-03T12:46:09.185Z,4.00
2023-04-03T12:48:48.447Z,4.90
2023-04-03T12:51:30.428Z,5.00
2023-04-03T12:54:16.155Z,4.70
2023-04-03T12:56:44.049Z,4.30
2023-04-03T12:59:15.037Z,6.10
2023-04-03T13:01:44.110Z,4.40
2023-04-03T13:04:13.703Z,5.30
2023-04-03T13:06:43.855Z,5.40
2023-04-03T13:09:22.964Z,4.30
2023-04-03T13:11:58.485Z,5.30
2023-04-03T13:14:29.608Z,5.60
2023-04-03T13:17:17.513Z,4.60
2023-04-03T13:19:49.085Z,4.90
2023-04-03T13:22:23.007Z,4.90
2023-04-03T13:24:53.065Z,3.70
2023-04-03T13:27:21.231Z,4.90
2023-04-03T13:29:55.108Z,5.70
2023-04-03T13:34:52.668Z,5.30
2023-04-03T13:37:31.545Z,4.50
2023-04-03T13:40:08.374Z,5.50
2023-04-03T13:42:38.986Z,4.20
2023-04-03T13:45:27.197Z,3.80
2023-04-03T13:48:23.115Z,3.70
2023-04-03T13:51:05.435Z,3.80
2023-04-03T13:53:35.680Z,4.00
2023-04-03T13:56:10.987Z,3.30
2023-04-03T13:58:40.079Z,3.60
2023-04-03T14:01:19.032Z,3.80
2023-04-03T14:03:58.861Z,3.50
2023-04-03T14:06:27.722Z,3.30
2023-04-03T14:08:55.841Z,4.00
2023-04-03T14:11:28.505Z,4.00
2023-04-03T14:14:11.090Z,4.50
2023-04-03T14:16:42.068Z,3.60
2023-04-03T14:19:28.924Z,3.60
2023-04-03T14:21:58.532Z,3.80
2023-04-03T14:24:28.383Z,4.10
2023-04-03T14:26:56.895Z,2.90
2023-04-03T14:29:25.786Z,3.10
2023-04-03T14:32:07.433Z,3.40
2023-04-03T14:34:43.930Z,3.40
2023-04-03T14:37:18.256Z,2.90
2023-04-03T14:39:47.325Z,2.90
2023-04-03T14:42:19.640Z,3.50
2023-04-03T14:44:49.103Z,3.00
2023-04-03T14:47:30.398Z,2.80
2023-04-03T14:50:02.271Z,3.10
2023-04-03T14:52:36.412Z,3.50
2023-04-03T14:57:34.704Z,3.60
2023-04-03T15:00:04.669Z,3.30
2023-04-03T15:02:35.632Z,2.60
2023-04-03T15:05:09.717Z,3.10
2023-04-03T15:10:28.634Z,3.10
2023-04-03T15:12:57.615Z,3.00
2023-04-03T15:15:29.263Z,2.70
2023-04-03T15:18:01.272Z,2.30
2023-04-03T15:20:31.802Z,2.70
2023-04-03T15:23:05.368Z,2.80
2023-04-03T15:25:34.021Z,2.50
2023-04-03T15:28:02.215Z,2.70
2023-04-03T15:30:30.526Z,2.60
2023-04-03T15:32:58.439Z,2.40
2023-04-03T15:35:26.350Z,2.70
2023-04-03T15:37:54.339Z,2.70
2023-04-03T15:40:22.383Z,2.80
2023-04-03T15:42:52.384Z,2.90
2023-04-03T15:45:22.279Z,2.60
2023-04-03T15:47:51.353Z,2.90
2023-04-03T15:50:19.334Z,2.90
2023-04-03T15:52:47.342Z,2.70
2023-04-03T15:55:15.267Z,2.70
2023-04-03T15:57:43.066Z,2.70
2023-04-03T16:00:12.170Z,2.80
2023-04-03T16:02:41.110Z,2.80
2023-04-03T16:05:11.623Z,3.30
2023-04-03T16:07:40.781Z,2.80
2023-04-03T16:10:10.089Z,2.70
2023-04-03T16:12:38.086Z,3.00
2023-04-03T16:15:07.257Z,3.10
2023-04-03T16:17:37.996Z,3.10
2023-04-03T16:20:07.790Z,2.70
2023-04-03T16:22:36.330Z,2.90
2023-04-03T16:25:06.499Z,2.50
2023-04-03T16:27:34.992Z,2.80
2023-04-03T16:30:03.561Z,3.20
2023-04-03T16:32:32.146Z,2.90
2023-04-03T16:37:31.046Z,3.20
2023-04-03T16:40:00.570Z,2.70
2023-04-03T16:42:28.579Z,2.90
2023-04-03T16:44:56.716Z,2.90
2023-04-03T16:47:24.629Z,2.90
2023-04-03T16:49:52.583Z,3.10
2023-04-03T16:52:20.680Z,3.50
2023-04-03T16:54:48.660Z,2.30
2023-04-03T16:57:16.812Z,3.10
2023-04-03T16:59:44.698Z,2.90
2023-04-03T17:02:12.627Z,2.30
2023-04-03T17:04:40.844Z,2.40
2023-04-03T17:07:08.918Z,2.60
2023-04-03T17:09:36.858Z,2.20
2023-04-03T17:12:04.882Z,2.60
2023-04-03T17:14:32.951Z,2.60
2023-04-03T17:17:01.174Z,2.40
2023-04-03T17:19:29.647Z,2.90
2023-04-03T17:21:58.941Z,2.60
2023-04-03T17:24:27.628Z,2.40
2023-04-03T17:26:55.696Z,2.30
2023-04-03T17:29:23.645Z,2.60
2023-04-03T17:31:51.937Z,3.20
2023-04-03T17:34:19.996Z,3.10
2023-04-03T17:36:48.817Z,3.10
2023-04-03T17:39:16.795Z,2.80
2023-04-03T17:41:46.147Z,3.00
2023-04-03T17:44:14.806Z,2.80
2023-04-03T17:46:42.797Z,3.40
2023-04-03T17:49:15.133Z,4.10
2023-04-03T17:51:43.341Z,3.40
2023-04-03T17:54:11.665Z,3.40
2023-04-03T17:56:39.751Z,3.00
2023-04-03T17:59:07.686Z,3.90
2023-04-03T18:01:38.838Z,2.70
2023-04-03T18:04:06.993Z,3.10
2023-04-03T18:06:42.297Z,3.00
2023-04-03T18:09:15.924Z,3.40
2023-04-03T18:11:46.389Z,3.00
2023-04-03T18:14:17.871Z,2.90
2023-04-03T18:16:46.465Z,2.60
2023-04-03T18:21:47.957Z,3.00
2023-04-03T18:24:18.544Z,2.70
2023-04-03T18:26:51.293Z,3.30
2023-04-03T18:29:20.340Z,3.10
2023-04-03T18:31:52.114Z,3.30
2023-04-03T18:34:23.900Z,3.30
2023-04-03T18:36:53.666Z,3.50
2023-04-03T18:39:23.347Z,2.80
2023-04-03T18:41:53.341Z,3.00
2023-04-03T18:44:25.970Z,6.60
2023-04-03T18:46:56.914Z,3.30
2023-04-03T18:49:26.277Z,4.20
2023-04-03T18:51:54.957Z,2.80
2023-04-03T18:54:22.986Z,3.20
2023-04-03T18:56:50.959Z,3.30
2023-04-03T18:59:18.947Z,3.40
2023-04-03T19:01:46.815Z,2.90
2023-04-03T19:04:15.548Z,2.90
2023-04-03T19:06:43.819Z,3.00
2023-04-03T19:09:11.790Z,2.90
2023-04-03T19:11:39.857Z,3.50
2023-04-03T19:14:16.191Z,3.20
2023-04-03T19:16:45.554Z,3.10
2023-04-03T19:19:13.796Z,2.80
2023-04-03T19:21:42.208Z,3.50
2023-04-03T19:24:12.279Z,3.90
2023-04-03T19:26:42.140Z,3.10
2023-04-03T19:29:10.678Z,3.10
2023-04-03T19:31:39.878Z,3.40
2023-04-03T19:34:08.682Z,2.90
2023-04-03T19:36:38.109Z,3.60
2023-04-03T19:39:06.481Z,3.30
2023-04-03T19:41:37.130Z,3.10
2023-04-03T19:44:07.437Z,3.40
2023-04-03T19:46:36.450Z,3.20
2023-04-03T19:49:05.069Z,3.00
2023-04-03T19:51:33.366Z,2.90
2023-04-03T19:54:02.386Z,3.20
2023-04-03T19:56:30.707Z,3.30
2023-04-03T19:58:58.890Z,3.00
2023-04-03T20:01:30.224Z,3.40
2023-04-03T20:03:58.257Z,3.20
2023-04-03T20:06:26.663Z,4.30
2023-04-03T20:08:54.881Z,3.60
2023-04-03T20:11:23.852Z,3.20
2023-04-03T20:13:53.085Z,3.00
2023-04-03T20:16:24.499Z,3.30
2023-04-03T20:18:55.342Z,3.30
2023-04-03T20:21:34.283Z,3.40
2023-04-03T20:24:04.648Z,3.60
2023-04-03T20:26:33.287Z,3.20
2023-04-03T20:29:02.756Z,3.10
2023-04-03T20:31:32.858Z,3.20
2023-04-03T20:34:01.475Z,3.90
2023-04-03T20:36:31.159Z,3.90
2023-04-03T20:38:59.987Z,3.90
2023-04-03T20:41:28.011Z,4.10
2023-04-03T20:43:55.936Z,3.70
2023-04-03T20:46:38.343Z,3.50
2023-04-03T20:49:16.048Z,3.50
2023-04-03T20:51:44.144Z,3.10
2023-04-03T20:54:12.994Z,3.80
2023-04-03T20:56:41.168Z,3.60
2023-04-03T20:59:10.359Z,3.20
2023-04-03T21:01:38.616Z,3.40
2023-04-03T21:04:17.158Z,3.40
2023-04-03T21:07:23.340Z,3.90
2023-04-03T21:10:29.279Z,4.00
2023-04-03T21:13:35.225Z,3.60
2023-04-03T21:16:04.074Z,3.30
2023-04-03T21:18:40.329Z,3.30
2023-04-03T21:21:18.672Z,3.40
2023-04-03T21:23:48.590Z,3.60
2023-04-03T21:26:21.765Z,3.20
2023-04-03T21:28:54.220Z,3.90
2023-04-03T21:31:23.135Z,3.80
2023-04-03T21:33:51.482Z,3.40
2023-04-03T21:36:19.313Z,3.40
2023-04-03T21:38:47.823Z,3.40
2023-04-03T21:41:15.744Z,3.50
2023-04-03T21:43:46.110Z,3.60
2023-04-03T21:46:14.184Z,3.60
2023-04-03T21:48:42.132Z,3.40
2023-04-03T21:51:11.094Z,3.70
2023-04-03T21:53:40.118Z,4.00
2023-04-03T21:56:08.508Z,3.90
2023-04-03T21:58:36.334Z,3.60
2023-04-03T22:01:11.615Z,3.60
2023-04-03T22:03:43.993Z,3.50
2023-04-03T22:06:16.735Z,3.50
2023-04-03T22:08:44.660Z,3.50
2023-04-03T22:11:14.936Z,3.50
2023-04-03T22:13:43.861Z,3.10
2023-04-03T22:16:13.075Z,3.30
2023-04-03T22:18:41.095Z,3.80
2023-04-03T22:21:09.289Z,3.50
2023-04-03T22:23:37.931Z,3.60
2023-04-03T22:26:12.174Z,3.50
2023-04-03T22:28:45.975Z,3.30
2023-04-03T22:31:15.052Z,3.30
2023-04-03T22:33:44.725Z,3.70
2023-04-03T22:36:13.976Z,3.40
2023-04-03T22:38:46.921Z,3.20
2023-04-03T22:41:14.895Z,3.60
2023-04-03T22:43:42.805Z,3.50
2023-04-03T22:46:10.787Z,3.70
2023-04-03T22:48:42.548Z,3.80
2023-04-03T22:51:10.424Z,3.30
2023-04-03T22:53:38.585Z,3.20
2023-04-03T22:56:14.158Z,3.70
2023-04-03T22:58:42.281Z,3.60
2023-04-03T23:01:14.958Z,3.30
2023-04-03T23:03:43.117Z,3.60
2023-04-03T23:06:12.832Z,3.90
2023-04-03T23:08:42.059Z,3.40
2023-04-03T23:11:10.109Z,3.70
2023-04-03T23:13:38.517Z,3.20
2023-04-03T23:16:06.764Z,3.60
2023-04-03T23:18:35.202Z,3.60
2023-04-03T23:21:04.358Z,3.90
2023-04-03T23:23:32.712Z,3.40
2023-04-03T23:26:02.223Z,3.70
2023-04-03T23:28:30.503Z,3.60
2023-04-03T23:31:03.348Z,3.60
2023-04-03T23:33:32.284Z,3.20
2023-04-03T23:36:06.748Z,4.00
2023-04-03T23:38:35.019Z,3.90
2023-04-03T23:41:02.915Z,3.90
2023-04-03T23:43:32.218Z,3.70
2023-04-03T23:46:00.216Z,4.10
2023-04-03T23:48:28.099Z,3.70
2023-04-03T23:50:56.265Z,3.60
2023-04-03T23:53:24.236Z,3.80
2023-04-03T23:55:52.490Z,4.30
2023-04-03T23:58:20.837Z,4.10
